Englewood, CO (80155)

6:09 PM MDT on September 29, 2016 (GMT -0600)
Walnut Hills | | Change Station

Elev 5800 ft 39.59 °N, 104.89 °W | Updated 3 minutes ago

Partly Cloudy
Partly Cloudy
77.7 °F
Feels Like 78 °F
N
1.0
Wind Variable Wind from ESE
Gusts 7.0 mph

Today
High -- | Low -- °F
--% Chance of Precip.
Yesterday
High -- | Low -- °F
Precip. -- in
Pressure 30.09 in
Visibility 10.0 miles
Clouds Few 10000 ft
Few 22000 ft
Heat Index 78 °F
Dew Point 43 °F
Humidity 29%
Rainfall Not available.
Snow Depth Not available.
6:54 AM 6:44 PM
Waning Crescent, 1% visible
METAR KAPA 292353Z 18012KT 10SM FEW100 FEW220 25/M01 A3025 RMK AO2 SLP188 T02501006 10289 20244 55004
Pressure 30.09 in
Visibility 10.0 miles
Clouds Few 10000 ft
Few 22000 ft
Heat Index 78 °F
Dew Point 43 °F
Humidity 29%
Rainfall Not available.
Snow Depth Not available.
6:54 AM 6:44 PM
Waning Crescent, 1% visible
METAR KAPA 292353Z 18012KT 10SM FEW100 FEW220 25/M01 A3025 RMK AO2 SLP188 T02501006 10289 20244 55004

10-Day Weather Forecast

Almanac

Astronomy

Sep. 29, 2016 Rise Set
Actual Time
Civil Twilight
Nautical Twilight
Astronomical Twilight
Moon
Length of Visible Light
Length of Day
Tomorrow will be .
, % of the Moon is Illuminated

Today's Extremes

State Highs State Lows

Community

WunderPhotos

Upload Photos

1,942,602 photos uploaded!

WunderBlog® & News

Nearby

Air Quality

  Air Quality AQ Index Pollutant
Not available.

Snow Depth

Station Depth Elevation

Earthquake Activity

City Distance Mag. Time & Date
Minimum magnitude displayed is 2.5.

Coastal Water Temperatures

Place Temperature

Stations

Nearby Weather Stations

Station Location Temp. Windchill Dew Point Humidity Wind Precip. Elev Updated Type
                   

Watches & Warnings

There are currently no watches in effect.